sensor_id;sensor_type;location;lat;lon;timestamp;P1;durP1;ratioP1;P2;durP2;ratioP2
29432;SDS011;16405;53.964;13.448;2023-02-11T00:01:28;63.30;;;29.95;;
29432;SDS011;16405;53.964;13.448;2023-02-11T00:04:03;69.03;;;29.33;;
29432;SDS011;16405;53.964;13.448;2023-02-11T00:06:30;61.08;;;29.95;;
29432;SDS011;16405;53.964;13.448;2023-02-11T00:08:58;61.50;;;29.63;;
29432;SDS011;16405;53.964;13.448;2023-02-11T00:11:27;66.90;;;30.80;;
29432;SDS011;16405;53.964;13.448;2023-02-11T00:13:54;64.38;;;31.00;;
29432;SDS011;16405;53.964;13.448;2023-02-11T00:16:25;71.93;;;29.50;;
29432;SDS011;16405;53.964;13.448;2023-02-11T00:18:51;79.03;;;31.90;;
29432;SDS011;16405;53.964;13.448;2023-02-11T00:21:24;65.43;;;29.92;;
29432;SDS011;16405;53.964;13.448;2023-02-11T00:23:50;67.25;;;31.50;;
29432;SDS011;16405;53.964;13.448;2023-02-11T00:26:18;67.35;;;31.17;;
29432;SDS011;16405;53.964;13.448;2023-02-11T00:28:50;65.35;;;29.85;;
29432;SDS011;16405;53.964;13.448;2023-02-11T00:31:17;74.78;;;30.38;;
29432;SDS011;16405;53.964;13.448;2023-02-11T00:33:45;77.00;;;31.85;;
29432;SDS011;16405;53.964;13.448;2023-02-11T00:36:15;77.20;;;31.60;;
29432;SDS011;16405;53.964;13.448;2023-02-11T00:38:49;73.20;;;31.63;;
29432;SDS011;16405;53.964;13.448;2023-02-11T00:41:18;68.05;;;31.38;;
29432;SDS011;16405;53.964;13.448;2023-02-11T00:43:45;70.35;;;31.08;;
29432;SDS011;16405;53.964;13.448;2023-02-11T00:46:11;73.07;;;32.83;;
29432;SDS011;16405;53.964;13.448;2023-02-11T00:48:38;70.38;;;30.83;;
29432;SDS011;16405;53.964;13.448;2023-02-11T00:51:04;73.72;;;32.88;;
29432;SDS011;16405;53.964;13.448;2023-02-11T00:53:31;80.72;;;34.00;;
29432;SDS011;16405;53.964;13.448;2023-02-11T00:56:06;71.72;;;30.35;;
29432;SDS011;16405;53.964;13.448;2023-02-11T00:58:32;71.05;;;32.25;;
29432;SDS011;16405;53.964;13.448;2023-02-11T01:00:58;74.75;;;32.13;;
29432;SDS011;16405;53.964;13.448;2023-02-11T01:03:31;77.18;;;31.58;;
29432;SDS011;16405;53.964;13.448;2023-02-11T01:05:57;71.70;;;31.08;;
29432;SDS011;16405;53.964;13.448;2023-02-11T01:08:23;82.70;;;32.85;;
29432;SDS011;16405;53.964;13.448;2023-02-11T01:11:03;79.47;;;34.22;;
29432;SDS011;16405;53.964;13.448;2023-02-11T01:13:35;72.97;;;33.08;;
29432;SDS011;16405;53.964;13.448;2023-02-11T01:16:03;75.18;;;32.78;;
29432;SDS011;16405;53.964;13.448;2023-02-11T01:18:32;82.07;;;33.97;;
29432;SDS011;16405;53.964;13.448;2023-02-11T01:20:59;74.72;;;32.60;;
29432;SDS011;16405;53.964;13.448;2023-02-11T01:23:30;80.22;;;34.33;;
29432;SDS011;16405;53.964;13.448;2023-02-11T01:25:56;84.03;;;34.45;;
29432;SDS011;16405;53.964;13.448;2023-02-11T01:28:23;78.72;;;33.25;;
29432;SDS011;16405;53.964;13.448;2023-02-11T01:30:56;74.35;;;33.25;;
29432;SDS011;16405;53.964;13.448;2023-02-11T01:33:23;76.95;;;34.50;;
29432;SDS011;16405;53.964;13.448;2023-02-11T01:35:49;80.60;;;34.08;;
29432;SDS011;16405;53.964;13.448;2023-02-11T01:38:17;80.00;;;34.05;;
29432;SDS011;16405;53.964;13.448;2023-02-11T01:40:54;84.50;;;32.85;;
29432;SDS011;16405;53.964;13.448;2023-02-11T01:43:35;81.63;;;34.20;;
29432;SDS011;16405;53.964;13.448;2023-02-11T01:48:55;78.07;;;33.95;;
29432;SDS011;16405;53.964;13.448;2023-02-11T01:51:35;74.05;;;33.95;;
29432;SDS011;16405;53.964;13.448;2023-02-11T01:54:11;85.03;;;34.78;;
29432;SDS011;16405;53.964;13.448;2023-02-11T01:57:02;73.60;;;33.33;;
29432;SDS011;16405;53.964;13.448;2023-02-11T01:59:59;78.65;;;33.80;;
29432;SDS011;16405;53.964;13.448;2023-02-11T02:03:00;79.65;;;34.00;;
29432;SDS011;16405;53.964;13.448;2023-02-11T02:10:46;78.20;;;34.33;;
29432;SDS011;16405;53.964;13.448;2023-02-11T02:13:21;96.85;;;36.65;;
29432;SDS011;16405;53.964;13.448;2023-02-11T02:16:34;79.53;;;35.78;;
29432;SDS011;16405;53.964;13.448;2023-02-11T02:27:55;83.32;;;35.97;;
29432;SDS011;16405;53.964;13.448;2023-02-11T02:34:01;78.50;;;35.13;;
29432;SDS011;16405;53.964;13.448;2023-02-11T02:36:40;83.40;;;36.10;;
29432;SDS011;16405;53.964;13.448;2023-02-11T02:39:23;79.82;;;35.75;;
29432;SDS011;16405;53.964;13.448;2023-02-11T02:41:55;87.05;;;36.22;;
29432;SDS011;16405;53.964;13.448;2023-02-11T02:44:22;93.72;;;37.03;;
29432;SDS011;16405;53.964;13.448;2023-02-11T02:46:48;83.97;;;37.33;;
29432;SDS011;16405;53.964;13.448;2023-02-11T02:49:15;93.47;;;37.63;;
29432;SDS011;16405;53.964;13.448;2023-02-11T03:00:33;81.45;;;37.13;;
29432;SDS011;16405;53.964;13.448;2023-02-11T03:06:11;85.25;;;36.53;;
29432;SDS011;16405;53.964;13.448;2023-02-11T03:09:05;82.30;;;37.95;;
29432;SDS011;16405;53.964;13.448;2023-02-11T03:11:54;80.97;;;36.40;;
29432;SDS011;16405;53.964;13.448;2023-02-11T03:14:27;85.68;;;37.05;;
29432;SDS011;16405;53.964;13.448;2023-02-11T03:16:55;78.43;;;36.10;;
29432;SDS011;16405;53.964;13.448;2023-02-11T03:19:33;81.93;;;35.97;;
29432;SDS011;16405;53.964;13.448;2023-02-11T03:22:55;76.90;;;36.42;;
29432;SDS011;16405;53.964;13.448;2023-02-11T03:25:29;82.78;;;38.17;;
29432;SDS011;16405;53.964;13.448;2023-02-11T03:30:46;91.07;;;38.88;;
29432;SDS011;16405;53.964;13.448;2023-02-11T03:33:46;85.10;;;38.40;;
29432;SDS011;16405;53.964;13.448;2023-02-11T03:36:40;95.15;;;39.35;;
29432;SDS011;16405;53.964;13.448;2023-02-11T03:39:20;77.75;;;39.50;;
29432;SDS011;16405;53.964;13.448;2023-02-11T03:41:54;97.43;;;40.17;;
29432;SDS011;16405;53.964;13.448;2023-02-11T03:44:22;83.63;;;39.45;;
29432;SDS011;16405;53.964;13.448;2023-02-11T03:46:56;92.18;;;40.80;;
29432;SDS011;16405;53.964;13.448;2023-02-11T03:49:23;87.57;;;39.72;;
29432;SDS011;16405;53.964;13.448;2023-02-11T03:51:53;77.60;;;38.05;;
29432;SDS011;16405;53.964;13.448;2023-02-11T03:54:28;87.43;;;41.40;;
29432;SDS011;16405;53.964;13.448;2023-02-11T03:56:56;84.72;;;38.45;;
29432;SDS011;16405;53.964;13.448;2023-02-11T03:59:25;89.60;;;39.20;;
29432;SDS011;16405;53.964;13.448;2023-02-11T04:01:53;80.22;;;37.80;;
29432;SDS011;16405;53.964;13.448;2023-02-11T04:04:19;81.30;;;39.15;;
29432;SDS011;16405;53.964;13.448;2023-02-11T04:06:45;73.38;;;36.95;;
29432;SDS011;16405;53.964;13.448;2023-02-11T04:09:11;78.40;;;36.35;;
29432;SDS011;16405;53.964;13.448;2023-02-11T04:11:38;75.80;;;37.30;;
29432;SDS011;16405;53.964;13.448;2023-02-11T04:14:10;77.07;;;32.85;;
29432;SDS011;16405;53.964;13.448;2023-02-11T04:16:35;75.32;;;34.88;;
29432;SDS011;16405;53.964;13.448;2023-02-11T04:19:01;81.10;;;37.28;;
29432;SDS011;16405;53.964;13.448;2023-02-11T04:21:27;79.93;;;35.90;;
29432;SDS011;16405;53.964;13.448;2023-02-11T04:23:53;79.55;;;36.55;;
29432;SDS011;16405;53.964;13.448;2023-02-11T04:26:21;79.47;;;37.30;;
29432;SDS011;16405;53.964;13.448;2023-02-11T04:28:50;74.28;;;35.83;;
29432;SDS011;16405;53.964;13.448;2023-02-11T04:31:16;78.10;;;35.95;;
29432;SDS011;16405;53.964;13.448;2023-02-11T04:33:42;74.35;;;36.40;;
29432;SDS011;16405;53.964;13.448;2023-02-11T04:36:08;78.78;;;36.72;;
29432;SDS011;16405;53.964;13.448;2023-02-11T04:38:33;79.45;;;36.75;;
29432;SDS011;16405;53.964;13.448;2023-02-11T04:40:59;66.32;;;33.97;;
29432;SDS011;16405;53.964;13.448;2023-02-11T04:43:34;80.18;;;36.28;;
29432;SDS011;16405;53.964;13.448;2023-02-11T04:46:00;67.22;;;33.65;;
29432;SDS011;16405;53.964;13.448;2023-02-11T04:48:26;67.75;;;35.47;;
29432;SDS011;16405;53.964;13.448;2023-02-11T04:51:00;69.88;;;32.47;;
29432;SDS011;16405;53.964;13.448;2023-02-11T04:53:26;73.22;;;34.08;;
29432;SDS011;16405;53.964;13.448;2023-02-11T04:55:52;77.72;;;35.72;;
29432;SDS011;16405;53.964;13.448;2023-02-11T04:58:25;72.70;;;36.40;;
29432;SDS011;16405;53.964;13.448;2023-02-11T05:00:51;82.88;;;34.22;;
29432;SDS011;16405;53.964;13.448;2023-02-11T05:03:17;78.70;;;36.80;;
29432;SDS011;16405;53.964;13.448;2023-02-11T05:05:43;73.43;;;35.13;;
29432;SDS011;16405;53.964;13.448;2023-02-11T05:08:09;83.30;;;38.75;;
29432;SDS011;16405;53.964;13.448;2023-02-11T05:10:35;79.80;;;36.90;;
29432;SDS011;16405;53.964;13.448;2023-02-11T05:13:06;84.90;;;37.75;;
29432;SDS011;16405;53.964;13.448;2023-02-11T05:15:32;86.30;;;36.60;;
29432;SDS011;16405;53.964;13.448;2023-02-11T05:17:58;81.35;;;38.13;;
29432;SDS011;16405;53.964;13.448;2023-02-11T05:20:24;81.57;;;35.83;;
29432;SDS011;16405;53.964;13.448;2023-02-11T05:22:49;80.15;;;34.10;;
29432;SDS011;16405;53.964;13.448;2023-02-11T05:25:24;88.80;;;37.70;;
29432;SDS011;16405;53.964;13.448;2023-02-11T05:27:50;87.72;;;37.78;;
29432;SDS011;16405;53.964;13.448;2023-02-11T05:30:16;87.50;;;38.13;;
29432;SDS011;16405;53.964;13.448;2023-02-11T05:32:42;83.20;;;36.63;;
29432;SDS011;16405;53.964;13.448;2023-02-11T05:35:10;83.72;;;34.00;;
29432;SDS011;16405;53.964;13.448;2023-02-11T05:37:35;76.13;;;33.40;;
29432;SDS011;16405;53.964;13.448;2023-02-11T05:40:02;75.38;;;35.67;;
29432;SDS011;16405;53.964;13.448;2023-02-11T05:42:28;83.57;;;34.85;;
29432;SDS011;16405;53.964;13.448;2023-02-11T05:44:54;69.95;;;31.48;;
29432;SDS011;16405;53.964;13.448;2023-02-11T05:47:20;85.32;;;34.00;;
29432;SDS011;16405;53.964;13.448;2023-02-11T05:49:45;70.97;;;32.38;;
29432;SDS011;16405;53.964;13.448;2023-02-11T05:52:11;70.93;;;33.03;;
29432;SDS011;16405;53.964;13.448;2023-02-11T05:54:40;73.65;;;32.42;;
29432;SDS011;16405;53.964;13.448;2023-02-11T05:57:06;71.10;;;32.47;;
29432;SDS011;16405;53.964;13.448;2023-02-11T05:59:32;64.07;;;31.00;;
29432;SDS011;16405;53.964;13.448;2023-02-11T06:01:58;68.30;;;29.92;;
29432;SDS011;16405;53.964;13.448;2023-02-11T06:04:23;62.33;;;28.25;;
29432;SDS011;16405;53.964;13.448;2023-02-11T06:06:49;55.05;;;28.63;;
29432;SDS011;16405;53.964;13.448;2023-02-11T06:09:15;57.92;;;27.70;;
29432;SDS011;16405;53.964;13.448;2023-02-11T06:11:46;61.72;;;27.15;;
29432;SDS011;16405;53.964;13.448;2023-02-11T06:14:12;69.55;;;29.10;;
29432;SDS011;16405;53.964;13.448;2023-02-11T06:16:38;54.00;;;27.85;;
29432;SDS011;16405;53.964;13.448;2023-02-11T06:19:04;45.08;;;18.30;;
29432;SDS011;16405;53.964;13.448;2023-02-11T06:21:30;46.75;;;22.55;;
29432;SDS011;16405;53.964;13.448;2023-02-11T06:24:03;48.97;;;24.38;;
29432;SDS011;16405;53.964;13.448;2023-02-11T06:26:30;52.28;;;24.65;;
29432;SDS011;16405;53.964;13.448;2023-02-11T06:28:58;56.25;;;25.70;;
29432;SDS011;16405;53.964;13.448;2023-02-11T06:31:28;54.95;;;25.27;;
29432;SDS011;16405;53.964;13.448;2023-02-11T06:33:54;55.83;;;24.73;;
29432;SDS011;16405;53.964;13.448;2023-02-11T06:36:21;53.33;;;25.05;;
29432;SDS011;16405;53.964;13.448;2023-02-11T06:38:47;53.10;;;24.60;;
29432;SDS011;16405;53.964;13.448;2023-02-11T06:41:14;51.08;;;22.83;;
29432;SDS011;16405;53.964;13.448;2023-02-11T06:43:51;45.03;;;22.73;;
29432;SDS011;16405;53.964;13.448;2023-02-11T06:46:17;38.80;;;19.05;;
29432;SDS011;16405;53.964;13.448;2023-02-11T06:48:52;37.95;;;16.38;;
29432;SDS011;16405;53.964;13.448;2023-02-11T06:51:18;48.40;;;20.73;;
29432;SDS011;16405;53.964;13.448;2023-02-11T06:53:44;46.17;;;20.70;;
29432;SDS011;16405;53.964;13.448;2023-02-11T06:56:13;36.53;;;18.48;;
29432;SDS011;16405;53.964;13.448;2023-02-11T06:58:44;45.03;;;20.15;;
29432;SDS011;16405;53.964;13.448;2023-02-11T07:01:11;35.72;;;17.65;;
29432;SDS011;16405;53.964;13.448;2023-02-11T07:03:40;37.05;;;15.85;;
29432;SDS011;16405;53.964;13.448;2023-02-11T07:06:11;38.10;;;17.20;;
29432;SDS011;16405;53.964;13.448;2023-02-11T07:08:52;33.25;;;16.50;;
29432;SDS011;16405;53.964;13.448;2023-02-11T07:11:20;34.67;;;17.10;;
29432;SDS011;16405;53.964;13.448;2023-02-11T07:14:00;40.47;;;16.05;;
29432;SDS011;16405;53.964;13.448;2023-02-11T07:16:34;33.65;;;15.43;;
29432;SDS011;16405;53.964;13.448;2023-02-11T07:19:02;35.97;;;14.45;;
29432;SDS011;16405;53.964;13.448;2023-02-11T07:21:27;33.08;;;14.07;;
29432;SDS011;16405;53.964;13.448;2023-02-11T07:23:53;35.97;;;15.63;;
29432;SDS011;16405;53.964;13.448;2023-02-11T07:26:21;25.70;;;12.45;;
29432;SDS011;16405;53.964;13.448;2023-02-11T07:28:57;28.58;;;13.35;;
29432;SDS011;16405;53.964;13.448;2023-02-11T07:31:24;37.50;;;15.52;;
29432;SDS011;16405;53.964;13.448;2023-02-11T07:33:54;36.08;;;14.70;;
29432;SDS011;16405;53.964;13.448;2023-02-11T07:36:23;34.90;;;15.52;;
29432;SDS011;16405;53.964;13.448;2023-02-11T07:38:51;32.65;;;12.45;;
29432;SDS011;16405;53.964;13.448;2023-02-11T07:41:18;34.22;;;13.98;;
29432;SDS011;16405;53.964;13.448;2023-02-11T07:43:47;37.83;;;13.63;;
29432;SDS011;16405;53.964;13.448;2023-02-11T07:46:17;28.23;;;13.52;;
29432;SDS011;16405;53.964;13.448;2023-02-11T07:48:50;35.40;;;14.70;;
29432;SDS011;16405;53.964;13.448;2023-02-11T07:53:56;29.38;;;11.00;;
29432;SDS011;16405;53.964;13.448;2023-02-11T07:56:23;32.40;;;13.80;;
29432;SDS011;16405;53.964;13.448;2023-02-11T07:58:50;29.67;;;11.30;;
29432;SDS011;16405;53.964;13.448;2023-02-11T08:01:23;36.97;;;14.35;;
29432;SDS011;16405;53.964;13.448;2023-02-11T08:03:52;25.83;;;10.57;;
29432;SDS011;16405;53.964;13.448;2023-02-11T08:06:30;43.55;;;16.88;;
29432;SDS011;16405;53.964;13.448;2023-02-11T08:09:08;40.50;;;16.15;;
29432;SDS011;16405;53.964;13.448;2023-02-11T08:11:38;21.98;;;9.70;;
29432;SDS011;16405;53.964;13.448;2023-02-11T08:14:10;33.95;;;13.35;;
29432;SDS011;16405;53.964;13.448;2023-02-11T08:16:37;27.25;;;10.82;;
29432;SDS011;16405;53.964;13.448;2023-02-11T08:19:04;35.10;;;13.85;;
29432;SDS011;16405;53.964;13.448;2023-02-11T08:21:41;30.02;;;11.68;;
29432;SDS011;16405;53.964;13.448;2023-02-11T08:24:07;47.35;;;18.20;;
29432;SDS011;16405;53.964;13.448;2023-02-11T08:26:41;45.25;;;18.08;;
29432;SDS011;16405;53.964;13.448;2023-02-11T08:29:09;27.92;;;11.25;;
29432;SDS011;16405;53.964;13.448;2023-02-11T08:31:39;41.45;;;13.43;;
29432;SDS011;16405;53.964;13.448;2023-02-11T08:34:22;44.50;;;15.43;;
29432;SDS011;16405;53.964;13.448;2023-02-11T08:36:51;38.55;;;15.30;;
29432;SDS011;16405;53.964;13.448;2023-02-11T08:39:18;38.78;;;13.05;;
29432;SDS011;16405;53.964;13.448;2023-02-11T08:41:47;43.67;;;15.95;;
29432;SDS011;16405;53.964;13.448;2023-02-11T08:44:21;37.17;;;14.18;;
29432;SDS011;16405;53.964;13.448;2023-02-11T08:46:48;42.05;;;14.75;;
29432;SDS011;16405;53.964;13.448;2023-02-11T08:49:15;34.72;;;13.95;;
29432;SDS011;16405;53.964;13.448;2023-02-11T08:51:41;44.45;;;16.75;;
29432;SDS011;16405;53.964;13.448;2023-02-11T08:54:08;36.85;;;13.82;;
29432;SDS011;16405;53.964;13.448;2023-02-11T08:56:34;43.45;;;13.32;;
29432;SDS011;16405;53.964;13.448;2023-02-11T08:59:02;35.25;;;13.75;;
29432;SDS011;16405;53.964;13.448;2023-02-11T09:01:28;45.85;;;13.02;;
29432;SDS011;16405;53.964;13.448;2023-02-11T09:04:02;35.45;;;14.05;;
29432;SDS011;16405;53.964;13.448;2023-02-11T09:06:28;47.17;;;14.68;;
29432;SDS011;16405;53.964;13.448;2023-02-11T09:08:55;40.10;;;13.43;;
29432;SDS011;16405;53.964;13.448;2023-02-11T09:11:28;25.83;;;10.13;;
29432;SDS011;16405;53.964;13.448;2023-02-11T09:13:58;38.05;;;11.88;;
29432;SDS011;16405;53.964;13.448;2023-02-11T09:16:26;30.45;;;12.38;;
29432;SDS011;16405;53.964;13.448;2023-02-11T09:19:01;30.60;;;11.80;;
29432;SDS011;16405;53.964;13.448;2023-02-11T09:21:29;36.28;;;12.95;;
29432;SDS011;16405;53.964;13.448;2023-02-11T09:23:57;34.08;;;11.65;;
29432;SDS011;16405;53.964;13.448;2023-02-11T09:26:27;29.73;;;10.90;;
29432;SDS011;16405;53.964;13.448;2023-02-11T09:28:56;39.17;;;11.13;;
29432;SDS011;16405;53.964;13.448;2023-02-11T09:31:23;38.58;;;11.77;;
29432;SDS011;16405;53.964;13.448;2023-02-11T09:34:01;43.72;;;12.07;;
29432;SDS011;16405;53.964;13.448;2023-02-11T09:36:30;35.72;;;12.57;;
29432;SDS011;16405;53.964;13.448;2023-02-11T09:39:02;36.80;;;10.45;;
29432;SDS011;16405;53.964;13.448;2023-02-11T09:44:35;36.97;;;10.05;;
29432;SDS011;16405;53.964;13.448;2023-02-11T09:50:06;28.95;;;9.52;;
29432;SDS011;16405;53.964;13.448;2023-02-11T09:52:54;27.83;;;9.05;;
29432;SDS011;16405;53.964;13.448;2023-02-11T09:55:48;29.77;;;7.60;;
29432;SDS011;16405;53.964;13.448;2023-02-11T10:07:06;27.83;;;7.43;;
29432;SDS011;16405;53.964;13.448;2023-02-11T10:22:14;24.38;;;5.78;;
29432;SDS011;16405;53.964;13.448;2023-02-11T10:24:57;17.75;;;5.10;;
29432;SDS011;16405;53.964;13.448;2023-02-11T10:27:32;24.52;;;5.43;;
29432;SDS011;16405;53.964;13.448;2023-02-11T10:30:08;19.27;;;4.72;;
29432;SDS011;16405;53.964;13.448;2023-02-11T10:36:08;17.98;;;4.00;;
29432;SDS011;16405;53.964;13.448;2023-02-11T10:38:42;24.70;;;4.97;;
29432;SDS011;16405;53.964;13.448;2023-02-11T10:41:09;14.77;;;4.18;;
29432;SDS011;16405;53.964;13.448;2023-02-11T10:43:45;21.92;;;4.75;;
29432;SDS011;16405;53.964;13.448;2023-02-11T10:46:24;13.43;;;3.33;;
29432;SDS011;16405;53.964;13.448;2023-02-11T10:49:03;15.13;;;3.53;;
29432;SDS011;16405;53.964;13.448;2023-02-11T10:51:30;16.98;;;3.20;;
29432;SDS011;16405;53.964;13.448;2023-02-11T10:54:09;11.75;;;2.30;;
29432;SDS011;16405;53.964;13.448;2023-02-11T10:56:47;11.68;;;2.08;;
29432;SDS011;16405;53.964;13.448;2023-02-11T10:59:26;10.05;;;1.95;;
29432;SDS011;16405;53.964;13.448;2023-02-11T11:01:58;17.48;;;2.90;;
29432;SDS011;16405;53.964;13.448;2023-02-11T11:04:43;14.38;;;2.78;;
29432;SDS011;16405;53.964;13.448;2023-02-11T11:07:26;15.32;;;2.30;;
29432;SDS011;16405;53.964;13.448;2023-02-11T11:13:22;12.98;;;2.15;;
29432;SDS011;16405;53.964;13.448;2023-02-11T11:16:08;13.27;;;2.90;;
29432;SDS011;16405;53.964;13.448;2023-02-11T11:27:01;15.75;;;2.22;;
29432;SDS011;16405;53.964;13.448;2023-02-11T11:32:28;7.40;;;1.45;;
29432;SDS011;16405;53.964;13.448;2023-02-11T11:35:00;10.50;;;2.03;;
29432;SDS011;16405;53.964;13.448;2023-02-11T11:37:42;9.13;;;1.88;;
29432;SDS011;16405;53.964;13.448;2023-02-11T11:40:20;11.48;;;1.77;;
29432;SDS011;16405;53.964;13.448;2023-02-11T11:45:39;8.98;;;1.70;;
29432;SDS011;16405;53.964;13.448;2023-02-11T11:51:07;14.23;;;1.70;;
29432;SDS011;16405;53.964;13.448;2023-02-11T11:56:34;11.73;;;2.50;;
29432;SDS011;16405;53.964;13.448;2023-02-11T11:59:12;7.57;;;1.30;;
29432;SDS011;16405;53.964;13.448;2023-02-11T12:14:02;9.55;;;2.22;;
29432;SDS011;16405;53.964;13.448;2023-02-11T12:16:52;5.80;;;1.30;;
29432;SDS011;16405;53.964;13.448;2023-02-11T12:19:53;6.60;;;1.10;;
29432;SDS011;16405;53.964;13.448;2023-02-11T12:25:33;6.82;;;1.60;;
29432;SDS011;16405;53.964;13.448;2023-02-11T12:28:25;8.07;;;1.83;;
29432;SDS011;16405;53.964;13.448;2023-02-11T12:31:31;230.27;;;18.00;;
29432;SDS011;16405;53.964;13.448;2023-02-11T12:43:05;12.20;;;1.90;;
29432;SDS011;16405;53.964;13.448;2023-02-11T12:52:06;12.63;;;2.08;;
29432;SDS011;16405;53.964;13.448;2023-02-11T12:54:58;8.77;;;1.42;;
29432;SDS011;16405;53.964;13.448;2023-02-11T12:57:34;10.57;;;1.20;;
29432;SDS011;16405;53.964;13.448;2023-02-11T13:03:14;12.98;;;1.98;;
29432;SDS011;16405;53.964;13.448;2023-02-11T13:06:10;11.00;;;2.53;;
29432;SDS011;16405;53.964;13.448;2023-02-11T13:08:43;74.78;;;36.58;;
29432;SDS011;16405;53.964;13.448;2023-02-11T13:11:28;10.88;;;2.38;;
29432;SDS011;16405;53.964;13.448;2023-02-11T13:14:23;6.85;;;1.58;;
29432;SDS011;16405;53.964;13.448;2023-02-11T13:17:03;10.63;;;1.88;;
29432;SDS011;16405;53.964;13.448;2023-02-11T13:19:57;10.02;;;2.00;;
29432;SDS011;16405;53.964;13.448;2023-02-11T13:22:37;9.32;;;1.40;;
29432;SDS011;16405;53.964;13.448;2023-02-11T13:25:33;13.17;;;1.87;;
29432;SDS011;16405;53.964;13.448;2023-02-11T13:31:00;10.45;;;2.65;;
29432;SDS011;16405;53.964;13.448;2023-02-11T13:33:37;8.35;;;2.10;;
29432;SDS011;16405;53.964;13.448;2023-02-11T13:38:33;13.75;;;2.28;;
29432;SDS011;16405;53.964;13.448;2023-02-11T13:41:38;12.20;;;2.25;;
29432;SDS011;16405;53.964;13.448;2023-02-11T13:49:32;8.98;;;1.90;;
29432;SDS011;16405;53.964;13.448;2023-02-11T13:52:14;14.45;;;1.80;;
29432;SDS011;16405;53.964;13.448;2023-02-11T13:55:06;14.30;;;2.20;;
29432;SDS011;16405;53.964;13.448;2023-02-11T13:58:33;10.57;;;2.70;;
29432;SDS011;16405;53.964;13.448;2023-02-11T14:06:09;13.95;;;2.20;;
29432;SDS011;16405;53.964;13.448;2023-02-11T14:09:01;11.70;;;2.35;;
29432;SDS011;16405;53.964;13.448;2023-02-11T14:25:00;19.63;;;3.35;;
29432;SDS011;16405;53.964;13.448;2023-02-11T14:30:57;10.25;;;1.92;;
29432;SDS011;16405;53.964;13.448;2023-02-11T14:37:13;15.85;;;2.35;;
29432;SDS011;16405;53.964;13.448;2023-02-11T14:40:17;13.07;;;2.70;;
29432;SDS011;16405;53.964;13.448;2023-02-11T14:43:12;27.05;;;3.40;;
29432;SDS011;16405;53.964;13.448;2023-02-11T14:45:47;24.58;;;3.38;;
29432;SDS011;16405;53.964;13.448;2023-02-11T14:48:20;20.67;;;2.65;;
29432;SDS011;16405;53.964;13.448;2023-02-11T14:51:20;23.10;;;2.67;;
29432;SDS011;16405;53.964;13.448;2023-02-11T14:54:22;15.82;;;2.58;;
29432;SDS011;16405;53.964;13.448;2023-02-11T14:59:39;15.02;;;2.75;;
29432;SDS011;16405;53.964;13.448;2023-02-11T15:02:37;20.08;;;2.88;;
29432;SDS011;16405;53.964;13.448;2023-02-11T15:07:54;19.35;;;2.65;;
29432;SDS011;16405;53.964;13.448;2023-02-11T15:10:32;23.95;;;3.25;;
29432;SDS011;16405;53.964;13.448;2023-02-11T15:13:05;10.25;;;2.40;;
29432;SDS011;16405;53.964;13.448;2023-02-11T15:15:33;19.30;;;2.45;;
29432;SDS011;16405;53.964;13.448;2023-02-11T15:18:01;22.90;;;2.90;;
29432;SDS011;16405;53.964;13.448;2023-02-11T15:20:37;18.65;;;3.25;;
29432;SDS011;16405;53.964;13.448;2023-02-11T15:23:06;22.33;;;2.75;;
29432;SDS011;16405;53.964;13.448;2023-02-11T15:25:43;25.83;;;2.93;;
29432;SDS011;16405;53.964;13.448;2023-02-11T15:28:20;34.70;;;4.05;;
29432;SDS011;16405;53.964;13.448;2023-02-11T15:31:16;18.67;;;2.70;;
29432;SDS011;16405;53.964;13.448;2023-02-11T15:33:45;23.10;;;3.42;;
29432;SDS011;16405;53.964;13.448;2023-02-11T15:36:11;21.80;;;3.22;;
29432;SDS011;16405;53.964;13.448;2023-02-11T15:39:53;20.17;;;2.70;;
29432;SDS011;16405;53.964;13.448;2023-02-11T15:47:39;25.40;;;3.63;;
29432;SDS011;16405;53.964;13.448;2023-02-11T15:50:28;15.05;;;2.42;;
29432;SDS011;16405;53.964;13.448;2023-02-11T15:52:59;23.67;;;2.55;;
29432;SDS011;16405;53.964;13.448;2023-02-11T15:55:46;29.75;;;3.83;;
29432;SDS011;16405;53.964;13.448;2023-02-11T15:58:14;25.85;;;4.22;;
29432;SDS011;16405;53.964;13.448;2023-02-11T16:00:47;13.75;;;2.33;;
29432;SDS011;16405;53.964;13.448;2023-02-11T16:03:21;22.33;;;3.72;;
29432;SDS011;16405;53.964;13.448;2023-02-11T16:05:49;21.75;;;3.83;;
29432;SDS011;16405;53.964;13.448;2023-02-11T16:10:53;22.38;;;3.92;;
29432;SDS011;16405;53.964;13.448;2023-02-11T16:13:32;26.67;;;3.88;;
29432;SDS011;16405;53.964;13.448;2023-02-11T16:16:21;23.50;;;3.33;;
29432;SDS011;16405;53.964;13.448;2023-02-11T16:18:52;32.30;;;4.22;;
29432;SDS011;16405;53.964;13.448;2023-02-11T16:21:21;20.42;;;3.55;;
29432;SDS011;16405;53.964;13.448;2023-02-11T16:24:00;28.00;;;3.78;;
29432;SDS011;16405;53.964;13.448;2023-02-11T16:29:13;27.17;;;3.33;;
29432;SDS011;16405;53.964;13.448;2023-02-11T16:31:46;23.20;;;3.00;;
29432;SDS011;16405;53.964;13.448;2023-02-11T16:34:24;24.77;;;3.28;;
29432;SDS011;16405;53.964;13.448;2023-02-11T16:36:50;30.10;;;3.72;;
29432;SDS011;16405;53.964;13.448;2023-02-11T16:39:17;34.17;;;3.53;;
29432;SDS011;16405;53.964;13.448;2023-02-11T16:41:47;33.92;;;3.53;;
29432;SDS011;16405;53.964;13.448;2023-02-11T16:44:19;19.73;;;3.47;;
29432;SDS011;16405;53.964;13.448;2023-02-11T16:46:44;32.78;;;4.28;;
29432;SDS011;16405;53.964;13.448;2023-02-11T16:52:04;26.77;;;3.38;;
29432;SDS011;16405;53.964;13.448;2023-02-11T16:54:37;26.50;;;3.67;;
29432;SDS011;16405;53.964;13.448;2023-02-11T16:57:16;32.00;;;4.85;;
29432;SDS011;16405;53.964;13.448;2023-02-11T16:59:50;30.15;;;4.43;;
29432;SDS011;16405;53.964;13.448;2023-02-11T17:02:21;28.95;;;4.75;;
29432;SDS011;16405;53.964;13.448;2023-02-11T17:04:55;32.05;;;4.55;;
29432;SDS011;16405;53.964;13.448;2023-02-11T17:07:24;42.20;;;5.03;;
29432;SDS011;16405;53.964;13.448;2023-02-11T17:09:50;27.30;;;3.35;;
29432;SDS011;16405;53.964;13.448;2023-02-11T17:12:23;37.22;;;3.65;;
29432;SDS011;16405;53.964;13.448;2023-02-11T17:14:50;27.80;;;4.22;;
29432;SDS011;16405;53.964;13.448;2023-02-11T17:17:16;20.27;;;2.80;;
29432;SDS011;16405;53.964;13.448;2023-02-11T17:19:42;37.72;;;4.47;;
29432;SDS011;16405;53.964;13.448;2023-02-11T17:22:15;36.90;;;4.18;;
29432;SDS011;16405;53.964;13.448;2023-02-11T17:24:42;29.67;;;3.78;;
29432;SDS011;16405;53.964;13.448;2023-02-11T17:27:08;31.13;;;3.20;;
29432;SDS011;16405;53.964;13.448;2023-02-11T17:29:35;44.13;;;5.22;;
29432;SDS011;16405;53.964;13.448;2023-02-11T17:32:10;30.25;;;3.63;;
29432;SDS011;16405;53.964;13.448;2023-02-11T17:34:36;32.08;;;4.28;;
29432;SDS011;16405;53.964;13.448;2023-02-11T17:37:02;30.63;;;3.35;;
29432;SDS011;16405;53.964;13.448;2023-02-11T17:39:33;28.13;;;2.95;;
29432;SDS011;16405;53.964;13.448;2023-02-11T17:42:00;38.20;;;4.25;;
29432;SDS011;16405;53.964;13.448;2023-02-11T17:44:26;39.08;;;4.32;;
29432;SDS011;16405;53.964;13.448;2023-02-11T17:46:52;32.40;;;4.88;;
29432;SDS011;16405;53.964;13.448;2023-02-11T17:49:18;40.17;;;5.03;;